Time;durP1;ratioP1;P1;durP2;ratioP2;P2;SDS_P1;SDS_P2;PMS_P1;PMS_P2;Temp;Humidity;BMP_temperature;BMP_pressure;BME280_temperature;BME280_humidity;BME280_pressure;Samples;Min_cycle;Max_cycle;Signal;HPM_P1;HPM_P2
2022/11/15 14:40:40;;;;;;;;;;;5.60;99.90;;;;;;6142498;22;2218822;-94
2022/11/15 14:43:19;;;;;;;;;;;6.70;99.90;;;;;;6214139;23;19908;-95
2022/11/15 14:45:57;;;;;;;;;;;6.70;99.90;;;;;;6242249;23;19924;-96
2022/11/15 14:54:30;;;;;;;;;;;6.70;99.90;;;;;;6223088;22;19967;-94
2022/11/15 14:57:01;;;;;;;;;;;6.70;99.90;;;;;;6181416;23;19966;-93
2022/11/15 15:10:17;;;;;;;;;;;6.60;99.90;;;;;;6227969;22;19924;-96
2022/11/15 15:15:39;;;;;;;;;;;6.60;99.90;;;;;;6227670;23;19903;-96
2022/11/15 15:18:38;;;;;;;;;;;;;;;;;;;;;
2022/11/15 15:21:07;;;;;;;;;;;6.60;99.90;;;;;;6219147;23;19904;-95
2022/11/15 15:23:35;;;;;;;;;;;6.60;99.90;;;;;;6199811;23;20355;-96
2022/11/15 15:26:27;;;;;;;;;;;6.60;99.90;;;;;;6199588;23;19936;-95
2022/11/15 15:29:08;;;;;;;;;;;;;;;;;;;;;
2022/11/15 15:32:04;;;;;;;;;;;6.60;99.90;;;;;;6245060;23;19903;-96
2022/11/15 15:34:39;;;;;;;;;;;6.60;99.90;;;;;;6186771;23;19986;-96
2022/11/15 15:40:46;;;;;;;;;;;6.60;99.90;;;;;;6058907;23;20014;-95
2022/11/15 15:43:13;;;;;;;;;;;6.60;99.90;;;;;;6040496;23;19989;-95
2022/11/15 15:45:50;;;;;;;;;;;6.60;99.90;;;;;;6041275;23;19945;-96
2022/11/15 15:48:26;;;;;;;;;;;6.60;99.90;;;;;;6114048;23;19905;-95
2022/11/15 15:51:01;;;;;;;;;;;6.60;99.90;;;;;;6138770;23;20309;-96
2022/11/15 15:53:41;;;;;;;;;;;6.60;99.90;;;;;;6135257;23;20350;-95
2022/11/15 15:56:07;;;;;;;;;;;6.60;99.90;;;;;;6133377;23;19959;-95
2022/11/15 15:58:41;;;;;;;;;;;6.60;99.90;;;;;;6133379;23;20352;-96
2022/11/15 16:01:06;;;;;;;;;;;6.60;99.90;;;;;;6132081;23;19927;-94
2022/11/15 16:03:52;;;;;;;;;;;6.60;99.90;;;;;;6132527;23;20302;-96
2022/11/15 16:06:52;;;;;;;;;;;;;;;;;;;;;
2022/11/15 16:09:59;;;;;;;;;;;6.60;99.90;;;;;;6215656;23;19990;-96
2022/11/15 16:12:17;;;;;;;;;;;6.60;99.90;;;;;;6219293;23;19908;-95
2022/11/15 16:14:45;;;;;;;;;;;6.60;99.90;;;;;;6193997;23;19927;-96
2022/11/15 16:17:42;;;;;;;;;;;6.60;99.90;;;;;;6243520;23;19931;-96
2022/11/15 16:20:25;;;;;;;;;;;6.60;99.90;;;;;;6193467;23;19915;-96
2022/11/15 16:23:01;;;;;;;;;;;6.50;99.90;;;;;;6196340;23;19954;-96
2022/11/15 16:25:36;;;;;;;;;;;6.50;99.90;;;;;;6197668;23;19911;-95
2022/11/15 16:28:13;;;;;;;;;;;6.60;99.90;;;;;;6193482;23;19939;-95
2022/11/15 16:30:41;;;;;;;;;;;6.50;99.90;;;;;;6193063;23;19966;-96
2022/11/15 16:33:15;;;;;;;;;;;6.60;99.90;;;;;;6246385;23;19963;-96
2022/11/15 16:35:45;;;;;;;;;;;6.50;99.90;;;;;;6248968;23;19935;-96
2022/11/15 16:48:29;;;;;;;;;;;6.30;99.90;;;;;;5000051;27;3840801;-96
2022/11/15 16:50:56;;;;;;;;;;;6.20;99.90;;;;;;5117933;28;19982;-96
2022/11/15 16:53:27;;;;;;;;;;;6.20;99.90;;;;;;5119667;28;19908;-96
2022/11/15 16:56:22;;;;;;;;;;;6.20;99.90;;;;;;5136563;28;20006;-96
2022/11/15 17:04:55;;;;;;;;;;;6.30;99.90;;;;;;5063748;28;19931;-96
2022/11/15 17:07:24;;;;;;;;;;;6.40;99.90;;;;;;5039276;28;19972;-96
2022/11/15 17:10:15;;;;;;;;;;;6.40;99.90;;;;;;5059092;28;19920;-95
2022/11/15 17:12:41;;;;;;;;;;;6.40;99.90;;;;;;5116598;28;19912;-96
2022/11/15 17:15:13;;;;;;;;;;;6.50;99.90;;;;;;5094147;28;19934;-96
2022/11/15 17:17:46;;;;;;;;;;;6.50;99.90;;;;;;5121042;27;19908;-96
2022/11/15 17:20:23;;;;;;;;;;;6.50;99.90;;;;;;5149464;28;19908;-96
2022/11/15 17:22:59;;;;;;;;;;;6.60;99.90;;;;;;5152854;28;19908;-96
2022/11/15 17:25:29;;;;;;;;;;;6.60;99.90;;;;;;5136793;28;19971;-96
2022/11/15 17:28:03;;;;;;;;;;;6.60;99.90;;;;;;5139643;28;19974;-96
2022/11/15 17:30:29;;;;;;;;;;;6.60;99.90;;;;;;5129122;28;19908;-96
2022/11/15 17:32:55;;;;;;;;;;;6.60;99.90;;;;;;5129461;28;19921;-96
2022/11/15 17:35:43;;;;;;;;;;;6.60;99.90;;;;;;5135043;28;19914;-96
2022/11/15 17:38:10;;;;;;;;;;;6.70;99.90;;;;;;5490068;22;19936;-96
2022/11/15 17:40:58;;;;;;;;;;;6.70;99.90;;;;;;5061277;28;19908;-96
2022/11/15 17:43:35;;;;;;;;;;;6.70;99.90;;;;;;5092228;28;19935;-96
2022/11/15 17:49:14;;;;;;;;;;;6.70;99.90;;;;;;5612415;22;19931;-96
2022/11/15 17:51:54;;;;;;;;;;;6.80;99.90;;;;;;5277109;22;19924;-96
2022/11/15 17:54:30;;;;;;;;;;;6.70;99.90;;;;;;5045186;28;19960;-96
2022/11/15 17:57:08;;;;;;;;;;;6.80;99.90;;;;;;5087931;28;19909;-96
2022/11/15 17:59:34;;;;;;;;;;;6.80;99.90;;;;;;5079896;28;20412;-96
2022/11/15 18:02:11;;;;;;;;;;;6.80;99.90;;;;;;5094035;28;19909;-96
2022/11/15 18:07:51;;;;;;;;;;;6.80;99.90;;;;;;5081636;22;19932;-96
2022/11/15 18:10:18;;;;;;;;;;;6.80;99.90;;;;;;5018678;28;19976;-96
2022/11/15 18:12:44;;;;;;;;;;;6.80;99.90;;;;;;5031050;28;19909;-96
2022/11/15 18:15:11;;;;;;;;;;;6.80;99.90;;;;;;5029467;28;19932;-95
2022/11/15 18:17:39;;;;;;;;;;;6.80;99.90;;;;;;5027368;28;19910;-96
2022/11/15 18:20:16;;;;;;;;;;;6.80;99.90;;;;;;5036010;28;19909;-96
2022/11/15 18:22:44;;;;;;;;;;;6.80;99.90;;;;;;5012814;28;19914;-96
2022/11/15 18:25:23;;;;;;;;;;;6.80;99.90;;;;;;5029276;28;19910;-96
2022/11/15 18:27:54;;;;;;;;;;;6.80;99.90;;;;;;4995087;28;19960;-96
2022/11/15 18:53:25;;;;;;;;;;;6.70;99.90;;;;;;4960153;28;19926;-95
2022/11/15 18:59:11;;;;;;;;;;;6.70;99.90;;;;;;4957152;28;19925;-95
2022/11/15 19:01:48;;;;;;;;;;;6.70;99.90;;;;;;4963131;29;19917;-95
2022/11/15 19:44:31;;;;;;;;;;;6.60;99.90;;;;;;4975251;28;19995;-96
2022/11/15 19:50:22;;;;;;;;;;;6.60;99.90;;;;;;4978753;29;19927;-96
2022/11/15 19:52:52;;;;;;;;;;;6.60;99.90;;;;;;4975328;28;19977;-96
2022/11/15 19:58:29;;;;;;;;;;;6.60;99.90;;;;;;5065031;23;19925;-96
2022/11/15 20:08:53;;;;;;;;;;;6.60;99.90;;;;;;5094859;23;19930;-95
2022/11/15 20:39:46;;;;;;;;;;;6.60;99.90;;;;;;5027133;28;19992;-96
2022/11/15 20:45:38;;;;;;;;;;;;;;;;;;;;;
2022/11/15 20:48:57;;;;;;;;;;;;;;;;;;;;;
